sensor_id;sensor_type;location;lat;lon;timestamp;P1;P2;P0
44045;PMS7003;29709;52.396;16.796;2023-05-10T00:00:21;8;8;7
44045;PMS7003;29709;52.396;16.796;2023-05-10T00:03:36;7;6;5
44045;PMS7003;29709;52.396;16.796;2023-05-10T00:06:49;7;6;5
44045;PMS7003;29709;52.396;16.796;2023-05-10T00:10:02;5;4;3
44045;PMS7003;29709;52.396;16.796;2023-05-10T00:13:16;6;5;4
44045;PMS7003;29709;52.396;16.796;2023-05-10T00:16:29;8;7;6
44045;PMS7003;29709;52.396;16.796;2023-05-10T00:19:42;6;5;4
44045;PMS7003;29709;52.396;16.796;2023-05-10T00:22:55;7;5;4
44045;PMS7003;29709;52.396;16.796;2023-05-10T00:26:08;5;4;4
44045;PMS7003;29709;52.396;16.796;2023-05-10T00:29:22;7;7;5
44045;PMS7003;29709;52.396;16.796;2023-05-10T00:32:35;7;6;5
44045;PMS7003;29709;52.396;16.796;2023-05-10T00:35:49;7;6;5
44045;PMS7003;29709;52.396;16.796;2023-05-10T00:39:03;7;5;4
44045;PMS7003;29709;52.396;16.796;2023-05-10T00:42:16;6;6;5
44045;PMS7003;29709;52.396;16.796;2023-05-10T00:45:30;8;7;5
44045;PMS7003;29709;52.396;16.796;2023-05-10T00:48:45;4;4;2
44045;PMS7003;29709;52.396;16.796;2023-05-10T00:51:58;8;7;6
44045;PMS7003;29709;52.396;16.796;2023-05-10T00:55:12;8;7;6
44045;PMS7003;29709;52.396;16.796;2023-05-10T00:58:25;8;6;5
44045;PMS7003;29709;52.396;16.796;2023-05-10T01:01:40;3;3;2
44045;PMS7003;29709;52.396;16.796;2023-05-10T01:04:53;9;7;6
44045;PMS7003;29709;52.396;16.796;2023-05-10T01:08:07;5;5;4
44045;PMS7003;29709;52.396;16.796;2023-05-10T01:11:21;5;4;4
44045;PMS7003;29709;52.396;16.796;2023-05-10T01:14:34;5;5;4
44045;PMS7003;29709;52.396;16.796;2023-05-10T01:17:48;7;6;5
44045;PMS7003;29709;52.396;16.796;2023-05-10T01:21:14;6;6;4
44045;PMS7003;29709;52.396;16.796;2023-05-10T01:38:13;7;6;5
44045;PMS7003;29709;52.396;16.796;2023-05-10T01:48:22;5;5;5
44045;PMS7003;29709;52.396;16.796;2023-05-10T01:51:41;5;5;4
44045;PMS7003;29709;52.396;16.796;2023-05-10T01:55:00;8;6;5
44045;PMS7003;29709;52.396;16.796;2023-05-10T01:58:20;4;3;2
44045;PMS7003;29709;52.396;16.796;2023-05-10T02:01:38;6;6;5
44045;PMS7003;29709;52.396;16.796;2023-05-10T02:04:53;5;4;4
44045;PMS7003;29709;52.396;16.796;2023-05-10T02:08:09;5;4;4
44045;PMS7003;29709;52.396;16.796;2023-05-10T02:11:23;7;5;4
44045;PMS7003;29709;52.396;16.796;2023-05-10T02:14:38;9;8;6
44045;PMS7003;29709;52.396;16.796;2023-05-10T02:17:54;6;6;4
44045;PMS7003;29709;52.396;16.796;2023-05-10T02:21:09;7;5;4
44045;PMS7003;29709;52.396;16.796;2023-05-10T02:24:23;5;5;4
44045;PMS7003;29709;52.396;16.796;2023-05-10T02:27:39;5;3;2
44045;PMS7003;29709;52.396;16.796;2023-05-10T02:30:55;6;6;4
44045;PMS7003;29709;52.396;16.796;2023-05-10T02:34:09;6;5;4
44045;PMS7003;29709;52.396;16.796;2023-05-10T02:37:24;4;4;3
44045;PMS7003;29709;52.396;16.796;2023-05-10T02:40:40;6;5;4
44045;PMS7003;29709;52.396;16.796;2023-05-10T02:43:56;6;5;5
44045;PMS7003;29709;52.396;16.796;2023-05-10T02:47:12;7;7;5
44045;PMS7003;29709;52.396;16.796;2023-05-10T02:50:27;5;5;4
44045;PMS7003;29709;52.396;16.796;2023-05-10T02:53:43;8;6;5
44045;PMS7003;29709;52.396;16.796;2023-05-10T02:57:00;6;5;4
44045;PMS7003;29709;52.396;16.796;2023-05-10T03:00:17;7;4;3
44045;PMS7003;29709;52.396;16.796;2023-05-10T03:03:30;9;6;5
44045;PMS7003;29709;52.396;16.796;2023-05-10T03:06:44;5;4;4
44045;PMS7003;29709;52.396;16.796;2023-05-10T03:09:58;8;5;4
44045;PMS7003;29709;52.396;16.796;2023-05-10T03:16:39;7;5;5
44045;PMS7003;29709;52.396;16.796;2023-05-10T03:23:26;8;6;5
44045;PMS7003;29709;52.396;16.796;2023-05-10T03:26:43;5;4;3
44045;PMS7003;29709;52.396;16.796;2023-05-10T03:29:58;5;5;4
44045;PMS7003;29709;52.396;16.796;2023-05-10T03:33:12;7;5;4
44045;PMS7003;29709;52.396;16.796;2023-05-10T03:36:26;8;6;4
44045;PMS7003;29709;52.396;16.796;2023-05-10T03:39:40;5;5;4
44045;PMS7003;29709;52.396;16.796;2023-05-10T03:42:53;8;5;4
44045;PMS7003;29709;52.396;16.796;2023-05-10T03:46:06;8;5;4
44045;PMS7003;29709;52.396;16.796;2023-05-10T03:49:19;8;6;4
44045;PMS7003;29709;52.396;16.796;2023-05-10T03:52:32;10;8;7
44045;PMS7003;29709;52.396;16.796;2023-05-10T03:55:46;4;3;2
44045;PMS7003;29709;52.396;16.796;2023-05-10T03:58:59;9;6;5
44045;PMS7003;29709;52.396;16.796;2023-05-10T04:02:13;9;7;6
44045;PMS7003;29709;52.396;16.796;2023-05-10T04:05:26;6;5;4
44045;PMS7003;29709;52.396;16.796;2023-05-10T04:08:39;9;8;6
44045;PMS7003;29709;52.396;16.796;2023-05-10T04:11:52;7;6;4
44045;PMS7003;29709;52.396;16.796;2023-05-10T04:15:06;1;0;0
44045;PMS7003;29709;52.396;16.796;2023-05-10T04:18:20;12;7;5
44045;PMS7003;29709;52.396;16.796;2023-05-10T04:21:33;6;6;5
44045;PMS7003;29709;52.396;16.796;2023-05-10T04:24:46;8;7;5
44045;PMS7003;29709;52.396;16.796;2023-05-10T04:27:59;6;4;4
44045;PMS7003;29709;52.396;16.796;2023-05-10T04:31:12;8;7;6
44045;PMS7003;29709;52.396;16.796;2023-05-10T04:34:25;11;8;6
44045;PMS7003;29709;52.396;16.796;2023-05-10T04:37:38;9;6;5
44045;PMS7003;29709;52.396;16.796;2023-05-10T04:40:52;5;5;4
44045;PMS7003;29709;52.396;16.796;2023-05-10T04:44:05;7;6;5
44045;PMS7003;29709;52.396;16.796;2023-05-10T04:47:19;10;8;7
44045;PMS7003;29709;52.396;16.796;2023-05-10T04:50:32;10;9;6
44045;PMS7003;29709;52.396;16.796;2023-05-10T04:53:45;5;3;3
44045;PMS7003;29709;52.396;16.796;2023-05-10T04:56:59;8;7;5
44045;PMS7003;29709;52.396;16.796;2023-05-10T05:00:12;10;8;6
44045;PMS7003;29709;52.396;16.796;2023-05-10T05:03:26;10;8;7
44045;PMS7003;29709;52.396;16.796;2023-05-10T05:06:39;10;8;7
44045;PMS7003;29709;52.396;16.796;2023-05-10T05:09:52;10;7;6
44045;PMS7003;29709;52.396;16.796;2023-05-10T05:13:06;7;6;5
44045;PMS7003;29709;52.396;16.796;2023-05-10T05:16:19;9;7;5
44045;PMS7003;29709;52.396;16.796;2023-05-10T05:19:32;9;6;5
44045;PMS7003;29709;52.396;16.796;2023-05-10T05:22:45;8;5;4
44045;PMS7003;29709;52.396;16.796;2023-05-10T05:25:58;7;7;6
44045;PMS7003;29709;52.396;16.796;2023-05-10T05:29:11;9;8;7
44045;PMS7003;29709;52.396;16.796;2023-05-10T05:32:25;13;10;8
44045;PMS7003;29709;52.396;16.796;2023-05-10T05:35:39;9;6;5
44045;PMS7003;29709;52.396;16.796;2023-05-10T05:38:52;6;6;5
44045;PMS7003;29709;52.396;16.796;2023-05-10T05:42:05;7;6;5
44045;PMS7003;29709;52.396;16.796;2023-05-10T05:45:44;7;5;5
44045;PMS7003;29709;52.396;16.796;2023-05-10T05:48:57;9;8;6
44045;PMS7003;29709;52.396;16.796;2023-05-10T05:52:10;8;7;6
44045;PMS7003;29709;52.396;16.796;2023-05-10T05:55:24;6;5;4
44045;PMS7003;29709;52.396;16.796;2023-05-10T05:58:38;10;9;8
44045;PMS7003;29709;52.396;16.796;2023-05-10T06:01:52;4;4;2
44045;PMS7003;29709;52.396;16.796;2023-05-10T06:05:06;7;6;5
44045;PMS7003;29709;52.396;16.796;2023-05-10T06:08:20;8;6;5
44045;PMS7003;29709;52.396;16.796;2023-05-10T06:11:36;9;8;7
44045;PMS7003;29709;52.396;16.796;2023-05-10T06:14:50;7;5;4
44045;PMS7003;29709;52.396;16.796;2023-05-10T06:18:03;7;7;6
44045;PMS7003;29709;52.396;16.796;2023-05-10T06:21:17;3;2;1
44045;PMS7003;29709;52.396;16.796;2023-05-10T06:24:30;12;7;6
44045;PMS7003;29709;52.396;16.796;2023-05-10T06:27:43;6;6;5
44045;PMS7003;29709;52.396;16.796;2023-05-10T06:30:57;6;6;5
44045;PMS7003;29709;52.396;16.796;2023-05-10T06:34:10;7;7;6
44045;PMS7003;29709;52.396;16.796;2023-05-10T06:37:24;4;4;4
44045;PMS7003;29709;52.396;16.796;2023-05-10T06:40:40;7;6;5
44045;PMS7003;29709;52.396;16.796;2023-05-10T06:43:54;7;6;5
44045;PMS7003;29709;52.396;16.796;2023-05-10T06:47:08;6;5;4
44045;PMS7003;29709;52.396;16.796;2023-05-10T06:50:21;6;5;4
44045;PMS7003;29709;52.396;16.796;2023-05-10T06:53:34;6;5;5
44045;PMS7003;29709;52.396;16.796;2023-05-10T06:56:48;7;6;5
44045;PMS7003;29709;52.396;16.796;2023-05-10T07:00:01;7;7;6
44045;PMS7003;29709;52.396;16.796;2023-05-10T07:03:17;5;4;4
44045;PMS7003;29709;52.396;16.796;2023-05-10T07:06:30;6;5;5
44045;PMS7003;29709;52.396;16.796;2023-05-10T07:09:43;5;4;3
44045;PMS7003;29709;52.396;16.796;2023-05-10T07:12:57;5;5;4
44045;PMS7003;29709;52.396;16.796;2023-05-10T07:16:10;5;5;4
44045;PMS7003;29709;52.396;16.796;2023-05-10T07:19:24;6;5;5
44045;PMS7003;29709;52.396;16.796;2023-05-10T07:22:37;6;5;4
44045;PMS7003;29709;52.396;16.796;2023-05-10T07:25:51;5;4;4
44045;PMS7003;29709;52.396;16.796;2023-05-10T07:29:05;4;4;3
44045;PMS7003;29709;52.396;16.796;2023-05-10T07:32:18;5;4;4
44045;PMS7003;29709;52.396;16.796;2023-05-10T07:35:31;8;6;5
44045;PMS7003;29709;52.396;16.796;2023-05-10T07:38:44;6;5;5
44045;PMS7003;29709;52.396;16.796;2023-05-10T07:41:58;1;1;0
44045;PMS7003;29709;52.396;16.796;2023-05-10T07:45:11;4;4;3
44045;PMS7003;29709;52.396;16.796;2023-05-10T07:48:26;3;3;2
44045;PMS7003;29709;52.396;16.796;2023-05-10T07:51:39;4;3;2
44045;PMS7003;29709;52.396;16.796;2023-05-10T07:54:53;3;3;2
44045;PMS7003;29709;52.396;16.796;2023-05-10T07:58:09;5;5;4
44045;PMS7003;29709;52.396;16.796;2023-05-10T08:01:22;8;5;4
44045;PMS7003;29709;52.396;16.796;2023-05-10T08:04:35;7;5;4
44045;PMS7003;29709;52.396;16.796;2023-05-10T08:07:48;2;1;0
44045;PMS7003;29709;52.396;16.796;2023-05-10T08:11:02;5;4;3
44045;PMS7003;29709;52.396;16.796;2023-05-10T08:14:16;6;4;3
44045;PMS7003;29709;52.396;16.796;2023-05-10T08:17:30;5;4;3
44045;PMS7003;29709;52.396;16.796;2023-05-10T08:20:43;6;5;4
44045;PMS7003;29709;52.396;16.796;2023-05-10T08:23:56;5;5;4
44045;PMS7003;29709;52.396;16.796;2023-05-10T08:27:21;3;3;2
44045;PMS7003;29709;52.396;16.796;2023-05-10T08:30:35;4;3;2
44045;PMS7003;29709;52.396;16.796;2023-05-10T08:33:48;4;3;3
44045;PMS7003;29709;52.396;16.796;2023-05-10T08:37:01;3;3;2
44045;PMS7003;29709;52.396;16.796;2023-05-10T08:40:14;4;4;2
44045;PMS7003;29709;52.396;16.796;2023-05-10T08:43:28;4;4;4
44045;PMS7003;29709;52.396;16.796;2023-05-10T08:46:42;5;4;3
44045;PMS7003;29709;52.396;16.796;2023-05-10T08:49:59;3;3;2
44045;PMS7003;29709;52.396;16.796;2023-05-10T08:53:13;4;3;3
44045;PMS7003;29709;52.396;16.796;2023-05-10T08:56:29;4;3;3
44045;PMS7003;29709;52.396;16.796;2023-05-10T08:59:43;2;2;2
44045;PMS7003;29709;52.396;16.796;2023-05-10T09:02:57;4;3;1
44045;PMS7003;29709;52.396;16.796;2023-05-10T09:06:11;4;3;3
44045;PMS7003;29709;52.396;16.796;2023-05-10T09:09:26;3;3;2
44045;PMS7003;29709;52.396;16.796;2023-05-10T09:12:40;3;3;2
44045;PMS7003;29709;52.396;16.796;2023-05-10T09:15:54;2;0;0
44045;PMS7003;29709;52.396;16.796;2023-05-10T09:19:07;2;2;1
44045;PMS7003;29709;52.396;16.796;2023-05-10T09:22:21;1;1;0
44045;PMS7003;29709;52.396;16.796;2023-05-10T09:25:34;3;2;2
44045;PMS7003;29709;52.396;16.796;2023-05-10T09:28:53;1;0;0
44045;PMS7003;29709;52.396;16.796;2023-05-10T09:32:08;3;1;1
44045;PMS7003;29709;52.396;16.796;2023-05-10T09:35:23;3;3;2
44045;PMS7003;29709;52.396;16.796;2023-05-10T09:42:04;10;5;3
44045;PMS7003;29709;52.396;16.796;2023-05-10T09:45:19;2;2;1
44045;PMS7003;29709;52.396;16.796;2023-05-10T09:48:33;0;0;0
44045;PMS7003;29709;52.396;16.796;2023-05-10T09:51:46;1;1;1
44045;PMS7003;29709;52.396;16.796;2023-05-10T09:54:59;3;1;1
44045;PMS7003;29709;52.396;16.796;2023-05-10T09:58:12;1;1;1
44045;PMS7003;29709;52.396;16.796;2023-05-10T10:01:26;1;1;1
44045;PMS7003;29709;52.396;16.796;2023-05-10T10:04:40;2;1;1
44045;PMS7003;29709;52.396;16.796;2023-05-10T10:07:55;2;2;2
44045;PMS7003;29709;52.396;16.796;2023-05-10T10:11:10;1;1;1
44045;PMS7003;29709;52.396;16.796;2023-05-10T10:14:23;2;1;1
44045;PMS7003;29709;52.396;16.796;2023-05-10T10:17:37;4;2;1
44045;PMS7003;29709;52.396;16.796;2023-05-10T10:20:53;1;1;1
44045;PMS7003;29709;52.396;16.796;2023-05-10T10:24:08;2;2;1
44045;PMS7003;29709;52.396;16.796;2023-05-10T10:27:23;1;1;1
44045;PMS7003;29709;52.396;16.796;2023-05-10T10:30:42;2;1;0
44045;PMS7003;29709;52.396;16.796;2023-05-10T10:33:59;2;2;2
44045;PMS7003;29709;52.396;16.796;2023-05-10T10:37:16;2;2;2
44045;PMS7003;29709;52.396;16.796;2023-05-10T10:40:31;3;2;2
44045;PMS7003;29709;52.396;16.796;2023-05-10T10:43:45;2;2;1
44045;PMS7003;29709;52.396;16.796;2023-05-10T10:47:02;3;2;1
44045;PMS7003;29709;52.396;16.796;2023-05-10T10:50:25;2;1;1
44045;PMS7003;29709;52.396;16.796;2023-05-10T10:53:40;1;1;1
44045;PMS7003;29709;52.396;16.796;2023-05-10T11:00:19;2;1;1
44045;PMS7003;29709;52.396;16.796;2023-05-10T11:03:40;1;1;1
44045;PMS7003;29709;52.396;16.796;2023-05-10T11:07:11;2;1;1
44045;PMS7003;29709;52.396;16.796;2023-05-10T11:10:19;3;1;1
44045;PMS7003;29709;52.396;16.796;2023-05-10T11:13:34;2;1;1
44045;PMS7003;29709;52.396;16.796;2023-05-10T11:16:56;3;2;2
44045;PMS7003;29709;52.396;16.796;2023-05-10T11:20:09;1;1;0
44045;PMS7003;29709;52.396;16.796;2023-05-10T11:23:23;3;1;1
44045;PMS7003;29709;52.396;16.796;2023-05-10T11:26:36;2;2;2
44045;PMS7003;29709;52.396;16.796;2023-05-10T11:29:53;2;2;2
44045;PMS7003;29709;52.396;16.796;2023-05-10T11:33:07;3;2;2
44045;PMS7003;29709;52.396;16.796;2023-05-10T11:36:23;2;2;1
44045;PMS7003;29709;52.396;16.796;2023-05-10T11:39:38;3;1;1
44045;PMS7003;29709;52.396;16.796;2023-05-10T11:42:51;2;1;1
44045;PMS7003;29709;52.396;16.796;2023-05-10T11:46:05;2;2;1
44045;PMS7003;29709;52.396;16.796;2023-05-10T11:49:19;2;1;1
44045;PMS7003;29709;52.396;16.796;2023-05-10T11:52:36;2;2;2
44045;PMS7003;29709;52.396;16.796;2023-05-10T11:55:52;3;3;2
44045;PMS7003;29709;52.396;16.796;2023-05-10T11:59:06;6;2;2
44045;PMS7003;29709;52.396;16.796;2023-05-10T12:02:20;4;3;2
44045;PMS7003;29709;52.396;16.796;2023-05-10T12:05:34;3;2;1
44045;PMS7003;29709;52.396;16.796;2023-05-10T12:08:48;5;1;1
44045;PMS7003;29709;52.396;16.796;2023-05-10T12:12:06;2;2;2
44045;PMS7003;29709;52.396;16.796;2023-05-10T12:15:23;1;1;1
44045;PMS7003;29709;52.396;16.796;2023-05-10T12:18:38;2;2;1
44045;PMS7003;29709;52.396;16.796;2023-05-10T12:21:53;3;2;2
44045;PMS7003;29709;52.396;16.796;2023-05-10T12:25:10;3;3;2
44045;PMS7003;29709;52.396;16.796;2023-05-10T12:28:23;2;2;2
44045;PMS7003;29709;52.396;16.796;2023-05-10T12:35:03;4;1;1
44045;PMS7003;29709;52.396;16.796;2023-05-10T12:41:42;3;2;2
44045;PMS7003;29709;52.396;16.796;2023-05-10T12:44:56;3;3;2
44045;PMS7003;29709;52.396;16.796;2023-05-10T12:48:09;1;0;0
44045;PMS7003;29709;52.396;16.796;2023-05-10T12:51:22;2;2;1
44045;PMS7003;29709;52.396;16.796;2023-05-10T12:54:36;1;1;1
44045;PMS7003;29709;52.396;16.796;2023-05-10T12:57:49;2;1;1
44045;PMS7003;29709;52.396;16.796;2023-05-10T13:01:02;3;3;2
44045;PMS7003;29709;52.396;16.796;2023-05-10T13:04:17;2;2;2
44045;PMS7003;29709;52.396;16.796;2023-05-10T13:07:30;4;2;2
44045;PMS7003;29709;52.396;16.796;2023-05-10T13:10:43;1;1;1
44045;PMS7003;29709;52.396;16.796;2023-05-10T13:13:56;3;3;2
44045;PMS7003;29709;52.396;16.796;2023-05-10T13:17:10;2;2;2
44045;PMS7003;29709;52.396;16.796;2023-05-10T13:20:23;5;3;3
44045;PMS7003;29709;52.396;16.796;2023-05-10T13:23:36;1;1;1
44045;PMS7003;29709;52.396;16.796;2023-05-10T13:26:49;3;2;1
44045;PMS7003;29709;52.396;16.796;2023-05-10T13:30:03;4;4;3
44045;PMS7003;29709;52.396;16.796;2023-05-10T13:33:17;4;3;3
44045;PMS7003;29709;52.396;16.796;2023-05-10T13:36:30;2;0;0
44045;PMS7003;29709;52.396;16.796;2023-05-10T13:39:47;3;3;2
44045;PMS7003;29709;52.396;16.796;2023-05-10T13:43:00;4;3;2
44045;PMS7003;29709;52.396;16.796;2023-05-10T13:46:13;2;2;2
44045;PMS7003;29709;52.396;16.796;2023-05-10T13:49:26;1;1;0
44045;PMS7003;29709;52.396;16.796;2023-05-10T13:52:40;4;3;2
44045;PMS7003;29709;52.396;16.796;2023-05-10T13:59:30;6;4;3
44045;PMS7003;29709;52.396;16.796;2023-05-10T14:02:47;3;2;2
44045;PMS7003;29709;52.396;16.796;2023-05-10T14:06:01;3;2;2
44045;PMS7003;29709;52.396;16.796;2023-05-10T14:09:15;3;3;2
44045;PMS7003;29709;52.396;16.796;2023-05-10T14:12:29;3;2;2
44045;PMS7003;29709;52.396;16.796;2023-05-10T14:15:43;8;5;3
44045;PMS7003;29709;52.396;16.796;2023-05-10T14:18:57;2;2;2
44045;PMS7003;29709;52.396;16.796;2023-05-10T14:22:10;4;3;2
44045;PMS7003;29709;52.396;16.796;2023-05-10T14:25:23;2;2;1
44045;PMS7003;29709;52.396;16.796;2023-05-10T14:28:36;3;3;3
44045;PMS7003;29709;52.396;16.796;2023-05-10T14:31:50;3;2;2
44045;PMS7003;29709;52.396;16.796;2023-05-10T14:35:03;6;3;3
44045;PMS7003;29709;52.396;16.796;2023-05-10T14:38:18;3;2;2
44045;PMS7003;29709;52.396;16.796;2023-05-10T14:41:31;4;3;2
44045;PMS7003;29709;52.396;16.796;2023-05-10T14:44:45;5;4;3
44045;PMS7003;29709;52.396;16.796;2023-05-10T14:47:58;3;2;2
44045;PMS7003;29709;52.396;16.796;2023-05-10T14:51:11;1;0;0
44045;PMS7003;29709;52.396;16.796;2023-05-10T14:57:48;4;4;3
44045;PMS7003;29709;52.396;16.796;2023-05-10T15:01:03;3;2;2
44045;PMS7003;29709;52.396;16.796;2023-05-10T15:04:17;3;3;2
44045;PMS7003;29709;52.396;16.796;2023-05-10T15:07:31;4;2;2
44045;PMS7003;29709;52.396;16.796;2023-05-10T15:10:44;2;2;2
44045;PMS7003;29709;52.396;16.796;2023-05-10T15:13:58;4;3;3
44045;PMS7003;29709;52.396;16.796;2023-05-10T15:17:12;1;1;1
44045;PMS7003;29709;52.396;16.796;2023-05-10T15:20:25;3;3;2
44045;PMS7003;29709;52.396;16.796;2023-05-10T15:23:38;3;3;2
44045;PMS7003;29709;52.396;16.796;2023-05-10T15:26:52;5;4;3
44045;PMS7003;29709;52.396;16.796;2023-05-10T15:30:05;3;2;2
44045;PMS7003;29709;52.396;16.796;2023-05-10T15:33:20;4;3;3
44045;PMS7003;29709;52.396;16.796;2023-05-10T15:36:33;5;4;4
44045;PMS7003;29709;52.396;16.796;2023-05-10T15:39:46;2;2;1
44045;PMS7003;29709;52.396;16.796;2023-05-10T15:42:59;5;4;3
44045;PMS7003;29709;52.396;16.796;2023-05-10T15:46:13;3;3;3
44045;PMS7003;29709;52.396;16.796;2023-05-10T15:49:26;4;3;2
44045;PMS7003;29709;52.396;16.796;2023-05-10T15:52:39;3;3;3
44045;PMS7003;29709;52.396;16.796;2023-05-10T15:55:53;3;3;2
44045;PMS7003;29709;52.396;16.796;2023-05-10T15:59:07;4;4;3
44045;PMS7003;29709;52.396;16.796;2023-05-10T16:02:23;3;3;2
44045;PMS7003;29709;52.396;16.796;2023-05-10T16:05:37;6;4;3
44045;PMS7003;29709;52.396;16.796;2023-05-10T16:08:50;4;3;3
44045;PMS7003;29709;52.396;16.796;2023-05-10T16:12:03;4;4;4
44045;PMS7003;29709;52.396;16.796;2023-05-10T16:15:17;4;4;4
44045;PMS7003;29709;52.396;16.796;2023-05-10T16:18:30;3;3;3
44045;PMS7003;29709;52.396;16.796;2023-05-10T16:21:44;4;4;3
44045;PMS7003;29709;52.396;16.796;2023-05-10T16:24:57;4;4;3
44045;PMS7003;29709;52.396;16.796;2023-05-10T16:28:11;4;4;3
44045;PMS7003;29709;52.396;16.796;2023-05-10T16:31:24;4;4;3
44045;PMS7003;29709;52.396;16.796;2023-05-10T16:34:37;4;3;3
44045;PMS7003;29709;52.396;16.796;2023-05-10T16:37:51;3;3;3
44045;PMS7003;29709;52.396;16.796;2023-05-10T16:41:04;4;3;3
44045;PMS7003;29709;52.396;16.796;2023-05-10T16:44:18;4;3;2
44045;PMS7003;29709;52.396;16.796;2023-05-10T16:47:32;4;4;3
44045;PMS7003;29709;52.396;16.796;2023-05-10T16:50:46;3;2;2
44045;PMS7003;29709;52.396;16.796;2023-05-10T16:53:59;3;2;2
44045;PMS7003;29709;52.396;16.796;2023-05-10T16:57:13;4;4;3
44045;PMS7003;29709;52.396;16.796;2023-05-10T17:00:26;0;0;0
44045;PMS7003;29709;52.396;16.796;2023-05-10T17:03:39;4;3;3
44045;PMS7003;29709;52.396;16.796;2023-05-10T17:06:52;4;3;2
44045;PMS7003;29709;52.396;16.796;2023-05-10T17:10:06;0;0;0
44045;PMS7003;29709;52.396;16.796;2023-05-10T17:13:19;3;2;2
44045;PMS7003;29709;52.396;16.796;2023-05-10T17:16:33;4;4;3
44045;PMS7003;29709;52.396;16.796;2023-05-10T17:19:48;2;2;2
44045;PMS7003;29709;52.396;16.796;2023-05-10T17:23:01;4;3;3
44045;PMS7003;29709;52.396;16.796;2023-05-10T17:26:14;2;2;1
44045;PMS7003;29709;52.396;16.796;2023-05-10T17:29:28;3;3;3
44045;PMS7003;29709;52.396;16.796;2023-05-10T17:32:43;9;6;4
44045;PMS7003;29709;52.396;16.796;2023-05-10T17:35:56;5;4;3
44045;PMS7003;29709;52.396;16.796;2023-05-10T17:39:10;6;4;3
44045;PMS7003;29709;52.396;16.796;2023-05-10T17:42:25;3;3;3
44045;PMS7003;29709;52.396;16.796;2023-05-10T17:45:38;4;4;3
44045;PMS7003;29709;52.396;16.796;2023-05-10T17:48:51;6;4;4
44045;PMS7003;29709;52.396;16.796;2023-05-10T17:52:04;3;3;2
44045;PMS7003;29709;52.396;16.796;2023-05-10T17:55:18;4;4;4
44045;PMS7003;29709;52.396;16.796;2023-05-10T17:58:32;6;4;3
44045;PMS7003;29709;52.396;16.796;2023-05-10T18:01:45;4;4;3
44045;PMS7003;29709;52.396;16.796;2023-05-10T18:04:58;4;3;2
44045;PMS7003;29709;52.396;16.796;2023-05-10T18:08:13;1;1;0
44045;PMS7003;29709;52.396;16.796;2023-05-10T18:11:27;3;3;3
44045;PMS7003;29709;52.396;16.796;2023-05-10T18:14:40;4;2;2
44045;PMS7003;29709;52.396;16.796;2023-05-10T18:17:53;4;4;3
44045;PMS7003;29709;52.396;16.796;2023-05-10T18:21:11;4;3;3
44045;PMS7003;29709;52.396;16.796;2023-05-10T18:24:25;6;5;4
44045;PMS7003;29709;52.396;16.796;2023-05-10T18:27:38;7;4;4
44045;PMS7003;29709;52.396;16.796;2023-05-10T18:30:51;6;4;3
44045;PMS7003;29709;52.396;16.796;2023-05-10T18:34:04;10;9;7
44045;PMS7003;29709;52.396;16.796;2023-05-10T18:37:17;16;14;11
44045;PMS7003;29709;52.396;16.796;2023-05-10T18:40:31;7;6;5
44045;PMS7003;29709;52.396;16.796;2023-05-10T18:43:44;10;7;6
44045;PMS7003;29709;52.396;16.796;2023-05-10T18:46:58;9;5;4
44045;PMS7003;29709;52.396;16.796;2023-05-10T18:50:11;4;4;3
44045;PMS7003;29709;52.396;16.796;2023-05-10T18:53:24;4;4;3
44045;PMS7003;29709;52.396;16.796;2023-05-10T18:56:38;4;4;4
44045;PMS7003;29709;52.396;16.796;2023-05-10T18:59:56;5;4;4
44045;PMS7003;29709;52.396;16.796;2023-05-10T19:03:10;1;1;1
44045;PMS7003;29709;52.396;16.796;2023-05-10T19:06:23;6;5;4
44045;PMS7003;29709;52.396;16.796;2023-05-10T19:09:36;7;5;3
44045;PMS7003;29709;52.396;16.796;2023-05-10T19:12:49;5;4;3
44045;PMS7003;29709;52.396;16.796;2023-05-10T19:16:03;5;5;4
44045;PMS7003;29709;52.396;16.796;2023-05-10T19:19:18;6;5;4
44045;PMS7003;29709;52.396;16.796;2023-05-10T19:22:31;6;4;4
44045;PMS7003;29709;52.396;16.796;2023-05-10T19:25:45;4;4;3
44045;PMS7003;29709;52.396;16.796;2023-05-10T19:28:58;5;5;4
44045;PMS7003;29709;52.396;16.796;2023-05-10T19:32:12;7;4;4
44045;PMS7003;29709;52.396;16.796;2023-05-10T19:35:25;4;4;3
44045;PMS7003;29709;52.396;16.796;2023-05-10T19:38:38;3;3;3
44045;PMS7003;29709;52.396;16.796;2023-05-10T19:41:51;6;5;4
44045;PMS7003;29709;52.396;16.796;2023-05-10T19:45:05;3;2;1
44045;PMS7003;29709;52.396;16.796;2023-05-10T19:48:20;6;5;4
44045;PMS7003;29709;52.396;16.796;2023-05-10T19:51:33;6;5;4
44045;PMS7003;29709;52.396;16.796;2023-05-10T19:54:46;5;4;4
44045;PMS7003;29709;52.396;16.796;2023-05-10T19:57:59;3;1;1
44045;PMS7003;29709;52.396;16.796;2023-05-10T20:01:12;5;5;4
44045;PMS7003;29709;52.396;16.796;2023-05-10T20:04:25;6;5;5
44045;PMS7003;29709;52.396;16.796;2023-05-10T20:07:40;4;4;4
44045;PMS7003;29709;52.396;16.796;2023-05-10T20:10:53;4;4;3
44045;PMS7003;29709;52.396;16.796;2023-05-10T20:14:10;4;3;3
44045;PMS7003;29709;52.396;16.796;2023-05-10T20:17:24;5;5;4
44045;PMS7003;29709;52.396;16.796;2023-05-10T20:20:37;4;4;3
44045;PMS7003;29709;52.396;16.796;2023-05-10T20:23:51;5;5;4
44045;PMS7003;29709;52.396;16.796;2023-05-10T20:27:07;6;5;5
44045;PMS7003;29709;52.396;16.796;2023-05-10T20:30:20;4;4;3
44045;PMS7003;29709;52.396;16.796;2023-05-10T20:33:34;7;6;5
44045;PMS7003;29709;52.396;16.796;2023-05-10T20:36:47;5;4;4
44045;PMS7003;29709;52.396;16.796;2023-05-10T20:40:00;5;5;4
44045;PMS7003;29709;52.396;16.796;2023-05-10T20:43:13;5;5;5
44045;PMS7003;29709;52.396;16.796;2023-05-10T20:46:26;5;5;4
44045;PMS7003;29709;52.396;16.796;2023-05-10T20:49:40;6;6;4
44045;PMS7003;29709;52.396;16.796;2023-05-10T20:52:53;7;5;4
44045;PMS7003;29709;52.396;16.796;2023-05-10T20:56:08;8;5;4
44045;PMS7003;29709;52.396;16.796;2023-05-10T20:59:21;6;5;5
44045;PMS7003;29709;52.396;16.796;2023-05-10T21:02:35;7;5;5
44045;PMS7003;29709;52.396;16.796;2023-05-10T21:05:49;8;6;5
44045;PMS7003;29709;52.396;16.796;2023-05-10T21:09:02;7;5;4
44045;PMS7003;29709;52.396;16.796;2023-05-10T21:12:16;5;5;4
44045;PMS7003;29709;52.396;16.796;2023-05-10T21:15:29;5;4;4
44045;PMS7003;29709;52.396;16.796;2023-05-10T21:18:42;6;5;5
44045;PMS7003;29709;52.396;16.796;2023-05-10T21:21:56;7;6;5
44045;PMS7003;29709;52.396;16.796;2023-05-10T21:25:11;8;5;4
44045;PMS7003;29709;52.396;16.796;2023-05-10T21:28:24;7;5;4
44045;PMS7003;29709;52.396;16.796;2023-05-10T21:31:37;3;2;1
44045;PMS7003;29709;52.396;16.796;2023-05-10T21:34:50;7;7;6
44045;PMS7003;29709;52.396;16.796;2023-05-10T21:38:04;7;6;5
44045;PMS7003;29709;52.396;16.796;2023-05-10T21:41:17;7;5;4
44045;PMS7003;29709;52.396;16.796;2023-05-10T21:44:30;7;6;5
44045;PMS7003;29709;52.396;16.796;2023-05-10T21:47:44;6;6;5
44045;PMS7003;29709;52.396;16.796;2023-05-10T21:50:57;5;5;4
44045;PMS7003;29709;52.396;16.796;2023-05-10T21:54:10;5;5;4
44045;PMS7003;29709;52.396;16.796;2023-05-10T21:57:24;3;2;1
44045;PMS7003;29709;52.396;16.796;2023-05-10T22:00:37;5;4;4
44045;PMS7003;29709;52.396;16.796;2023-05-10T22:03:50;7;5;5
44045;PMS7003;29709;52.396;16.796;2023-05-10T22:07:03;5;4;4
44045;PMS7003;29709;52.396;16.796;2023-05-10T22:10:17;7;6;5
44045;PMS7003;29709;52.396;16.796;2023-05-10T22:13:30;6;6;5